createdAt,value
2023-01-04T00:01:24.887Z,6.95
2023-01-04T00:03:52.590Z,6.85
2023-01-04T00:06:21.533Z,6.87
2023-01-04T00:08:49.914Z,6.85
2023-01-04T00:11:22.425Z,6.82
2023-01-04T00:13:52.787Z,6.78
2023-01-04T00:16:23.282Z,6.77
2023-01-04T00:18:52.184Z,6.75
2023-01-04T00:21:23.980Z,6.71
2023-01-04T00:23:54.462Z,6.71
2023-01-04T00:26:27.168Z,6.66
2023-01-04T00:28:57.236Z,6.63
2023-01-04T00:31:25.692Z,6.66
2023-01-04T00:33:58.514Z,6.61
2023-01-04T00:36:26.919Z,6.63
2023-01-04T00:39:08.874Z,6.56
2023-01-04T00:42:00.966Z,6.54
2023-01-04T00:44:29.969Z,6.49
2023-01-04T00:46:59.285Z,6.46
2023-01-04T00:49:28.053Z,6.43
2023-01-04T00:51:56.154Z,6.39
2023-01-04T00:54:24.278Z,6.38
2023-01-04T00:56:52.348Z,6.33
2023-01-04T00:59:21.169Z,6.28
2023-01-04T01:01:49.345Z,6.27
2023-01-04T01:04:20.444Z,6.29
2023-01-04T01:06:52.153Z,6.24
2023-01-04T01:09:23.026Z,6.24
2023-01-04T01:11:53.176Z,6.19
2023-01-04T01:14:22.239Z,6.15
2023-01-04T01:16:56.022Z,6.16
2023-01-04T01:19:29.141Z,6.11
2023-01-04T01:21:57.942Z,6.12
2023-01-04T01:24:27.345Z,6.12
2023-01-04T01:26:55.884Z,6.07
2023-01-04T01:29:24.149Z,6.08
2023-01-04T01:31:52.090Z,6.07
2023-01-04T01:34:19.851Z,6.02
2023-01-04T01:36:47.601Z,6.02
2023-01-04T01:39:15.413Z,6.00
2023-01-04T01:41:42.936Z,5.98
2023-01-04T01:44:13.689Z,5.97
2023-01-04T01:46:47.721Z,5.93
2023-01-04T01:49:30.310Z,5.94
2023-01-04T01:52:00.243Z,5.90
2023-01-04T01:54:34.556Z,5.91
2023-01-04T01:57:05.823Z,5.91
2023-01-04T01:59:36.275Z,5.85
2023-01-04T02:02:04.153Z,5.80
2023-01-04T02:04:33.077Z,5.80
2023-01-04T02:07:02.623Z,5.73
2023-01-04T02:09:32.558Z,5.70
2023-01-04T02:12:00.992Z,5.69
2023-01-04T02:14:29.341Z,5.70
2023-01-04T02:17:22.448Z,5.59
2023-01-04T02:20:04.607Z,5.59
2023-01-04T02:22:51.386Z,5.57
2023-01-04T02:25:40.539Z,5.58
2023-01-04T02:28:11.031Z,5.52
2023-01-04T02:30:45.060Z,5.48
2023-01-04T02:33:24.456Z,5.44
2023-01-04T02:36:10.543Z,5.41
2023-01-04T02:38:48.161Z,5.34
2023-01-04T02:41:27.636Z,5.29
2023-01-04T02:44:21.216Z,5.29
2023-01-04T02:46:55.905Z,5.30
2023-01-04T02:49:42.444Z,5.31
2023-01-04T02:52:10.310Z,5.25
2023-01-04T02:54:39.503Z,5.26
2023-01-04T02:57:38.204Z,5.20
2023-01-04T03:00:08.844Z,5.15
2023-01-04T03:03:13.401Z,5.09
2023-01-04T03:06:17.756Z,5.10
2023-01-04T03:09:07.089Z,5.08
2023-01-04T03:12:04.835Z,5.07
2023-01-04T03:14:46.836Z,5.05
2023-01-04T03:17:17.523Z,5.02
2023-01-04T03:19:51.571Z,5.01
2023-01-04T03:23:13.128Z,5.01
2023-01-04T03:26:03.409Z,4.99
2023-01-04T03:28:54.182Z,4.95
2023-01-04T03:31:45.663Z,4.90
2023-01-04T03:34:32.355Z,4.85
2023-01-04T03:37:29.530Z,4.88
2023-01-04T03:40:43.586Z,4.85
2023-01-04T03:43:42.852Z,4.78
2023-01-04T03:46:40.493Z,4.77
2023-01-04T03:49:21.482Z,4.71
2023-01-04T03:51:54.323Z,4.70
2023-01-04T03:54:31.969Z,4.63
2023-01-04T03:57:00.506Z,4.65
2023-01-04T03:59:28.623Z,4.72
2023-01-04T04:01:56.482Z,4.70
2023-01-04T04:04:42.767Z,4.65
2023-01-04T04:07:30.141Z,4.66
2023-01-04T04:09:57.735Z,4.62
2023-01-04T04:12:25.400Z,4.71
2023-01-04T04:14:53.145Z,4.70
2023-01-04T04:17:21.120Z,4.69
2023-01-04T04:19:48.826Z,4.70
2023-01-04T04:22:16.351Z,4.75
2023-01-04T04:24:45.688Z,4.71
2023-01-04T04:27:13.291Z,4.67
2023-01-04T04:29:40.882Z,4.63
2023-01-04T04:32:08.458Z,4.66
2023-01-04T04:34:37.451Z,4.68
2023-01-04T04:37:05.303Z,4.72
2023-01-04T04:39:33.609Z,4.63
2023-01-04T04:42:01.152Z,4.60
2023-01-04T04:44:28.775Z,4.54
2023-01-04T04:46:56.371Z,4.55
2023-01-04T04:49:23.881Z,4.48
2023-01-04T04:51:52.299Z,4.53
2023-01-04T04:54:21.443Z,4.51
2023-01-04T04:56:49.774Z,4.47
2023-01-04T04:59:17.842Z,4.53
2023-01-04T05:01:45.651Z,4.52
2023-01-04T05:04:16.808Z,4.52
2023-01-04T05:06:45.287Z,4.51
2023-01-04T05:09:14.448Z,4.48
2023-01-04T05:12:01.814Z,4.40
2023-01-04T05:14:30.108Z,4.39
2023-01-04T05:16:57.827Z,4.37
2023-01-04T05:19:25.879Z,4.35
2023-01-04T05:21:53.722Z,4.36
2023-01-04T05:24:21.474Z,4.33
2023-01-04T05:26:49.032Z,4.23
2023-01-04T05:29:35.508Z,4.21
2023-01-04T05:32:03.367Z,4.19
2023-01-04T05:34:32.797Z,4.27
2023-01-04T05:37:00.975Z,4.26
2023-01-04T05:39:28.647Z,4.26
2023-01-04T05:42:14.708Z,4.27
2023-01-04T05:44:42.480Z,4.29
2023-01-04T05:47:14.816Z,4.20
2023-01-04T05:49:43.531Z,4.23
2023-01-04T05:52:11.690Z,4.21
2023-01-04T05:54:39.407Z,4.17
2023-01-04T05:57:07.377Z,4.18
2023-01-04T05:59:41.040Z,4.16
2023-01-04T06:02:24.234Z,4.16
2023-01-04T06:04:58.482Z,4.13
2023-01-04T06:07:30.239Z,4.09
2023-01-04T06:09:58.116Z,4.06
2023-01-04T06:12:26.016Z,4.06
2023-01-04T06:14:53.919Z,4.08
2023-01-04T06:17:23.927Z,4.10
2023-01-04T06:19:51.724Z,4.12
2023-01-04T06:22:20.535Z,4.07
2023-01-04T06:24:48.529Z,4.06
2023-01-04T06:27:16.380Z,4.08
2023-01-04T06:29:44.253Z,4.08
2023-01-04T06:32:13.376Z,4.02
2023-01-04T06:34:41.016Z,3.99
2023-01-04T06:37:09.875Z,4.09
2023-01-04T06:39:37.576Z,4.00
2023-01-04T06:42:06.921Z,3.95
2023-01-04T06:44:34.715Z,3.99
2023-01-04T06:47:02.374Z,3.99
2023-01-04T06:49:29.970Z,3.95
2023-01-04T06:51:57.674Z,3.93
2023-01-04T06:54:25.226Z,3.95
2023-01-04T06:56:54.990Z,4.06
2023-01-04T06:59:22.676Z,3.99
2023-01-04T07:01:50.271Z,4.01
2023-01-04T07:04:17.943Z,3.98
2023-01-04T07:06:46.040Z,3.95
2023-01-04T07:09:13.593Z,3.92
2023-01-04T07:11:41.773Z,3.92
2023-01-04T07:14:09.229Z,3.90
2023-01-04T07:16:37.047Z,3.96
2023-01-04T07:19:04.656Z,3.88
2023-01-04T07:21:32.313Z,3.83
2023-01-04T07:23:59.813Z,3.86
2023-01-04T07:26:27.695Z,3.87
2023-01-04T07:29:13.625Z,3.90
2023-01-04T07:31:42.082Z,3.90
2023-01-04T07:34:09.742Z,3.97
2023-01-04T07:36:37.411Z,3.96
2023-01-04T07:39:05.745Z,4.01
2023-01-04T07:41:33.729Z,4.01
2023-01-04T07:44:01.573Z,3.96
2023-01-04T07:46:29.268Z,4.08
2023-01-04T07:48:56.995Z,4.12
2023-01-04T07:51:24.928Z,4.07
2023-01-04T07:53:52.690Z,4.09
2023-01-04T07:56:22.716Z,4.19
2023-01-04T07:58:50.295Z,4.17
2023-01-04T08:01:19.820Z,4.18
2023-01-04T08:03:47.532Z,4.15
2023-01-04T08:06:16.699Z,4.13
2023-01-04T08:08:44.790Z,4.22
2023-01-04T08:11:18.184Z,4.18
2023-01-04T08:13:46.419Z,4.25
2023-01-04T08:24:54.394Z,4.36
2023-01-04T08:33:02.558Z,4.56
2023-01-04T08:35:33.461Z,4.65
2023-01-04T08:38:21.389Z,4.65
2023-01-04T08:40:59.578Z,4.69
2023-01-04T08:43:33.856Z,4.60
2023-01-04T08:46:03.148Z,4.70
2023-01-04T08:48:33.457Z,4.74
2023-01-04T08:51:10.535Z,4.85
2023-01-04T08:53:38.523Z,4.94
2023-01-04T08:56:09.047Z,4.98
2023-01-04T08:58:38.218Z,5.00
2023-01-04T09:01:08.537Z,5.03
2023-01-04T09:03:38.497Z,5.09
2023-01-04T09:06:12.747Z,5.06
2023-01-04T09:08:42.059Z,5.10
2023-01-04T09:11:10.864Z,5.27
2023-01-04T09:13:38.998Z,5.30
2023-01-04T09:16:09.858Z,5.33
2023-01-04T09:18:38.866Z,5.30
2023-01-04T09:21:08.405Z,5.37
2023-01-04T09:23:36.698Z,5.41
2023-01-04T09:26:23.959Z,5.41
2023-01-04T09:28:53.636Z,5.45
2023-01-04T09:31:23.295Z,5.41
2023-01-04T09:36:39.503Z,5.35
2023-01-04T09:39:07.477Z,5.33
2023-01-04T09:41:39.029Z,5.39
2023-01-04T09:49:38.689Z,5.61
2023-01-04T09:52:34.036Z,5.59
2023-01-04T09:55:39.779Z,5.60
2023-01-04T09:58:02.428Z,5.71
2023-01-04T10:00:41.775Z,5.64
2023-01-04T10:03:24.682Z,5.59
2023-01-04T10:05:55.087Z,5.62
2023-01-04T10:08:23.401Z,5.60
2023-01-04T10:11:16.319Z,5.79
2023-01-04T10:14:02.675Z,5.80
2023-01-04T10:22:54.847Z,5.82
2023-01-04T10:25:32.032Z,5.98
2023-01-04T10:28:18.415Z,5.99
2023-01-04T10:31:40.370Z,6.07
2023-01-04T10:34:18.757Z,6.05
2023-01-04T10:36:48.748Z,6.25
2023-01-04T10:39:19.219Z,6.45
2023-01-04T10:41:59.643Z,6.65
2023-01-04T10:44:54.667Z,6.54
2023-01-04T10:47:44.764Z,6.18
2023-01-04T10:50:22.271Z,5.92
2023-01-04T10:53:11.953Z,5.77
2023-01-04T10:56:24.588Z,5.54
2023-01-04T10:58:46.005Z,5.38
2023-01-04T11:01:20.965Z,5.30
2023-01-04T11:04:23.280Z,5.28
2023-01-04T11:07:08.099Z,5.17
2023-01-04T11:09:53.686Z,5.35
2023-01-04T11:12:23.551Z,5.28
2023-01-04T11:14:54.101Z,5.27
2023-01-04T11:17:25.116Z,5.26
2023-01-04T11:19:53.612Z,5.26
2023-01-04T11:22:37.526Z,5.29
2023-01-04T11:28:20.944Z,5.33
2023-01-04T11:31:33.013Z,5.32
2023-01-04T11:34:03.035Z,5.40
2023-01-04T11:36:43.986Z,5.38
2023-01-04T11:39:22.653Z,5.36
2023-01-04T11:42:03.992Z,5.37
2023-01-04T11:44:33.649Z,5.39
2023-01-04T11:47:07.487Z,5.93
2023-01-04T11:49:37.018Z,6.11
2023-01-04T11:52:05.642Z,5.92
2023-01-04T11:54:33.316Z,5.74
2023-01-04T11:57:12.171Z,5.58
2023-01-04T11:59:41.591Z,5.54
2023-01-04T12:02:50.503Z,5.51
2023-01-04T12:05:29.056Z,5.39
2023-01-04T12:07:59.042Z,5.41
2023-01-04T12:10:28.829Z,5.42
2023-01-04T12:13:00.609Z,5.34
2023-01-04T12:15:56.138Z,5.34
2023-01-04T12:18:28.708Z,5.27
2023-01-04T12:20:56.896Z,5.27
2023-01-04T12:23:24.970Z,5.22
2023-01-04T12:25:54.581Z,5.23
2023-01-04T12:28:29.489Z,5.20
2023-01-04T12:31:20.769Z,5.20
2023-01-04T12:33:51.740Z,5.12
2023-01-04T12:36:20.929Z,5.17
2023-01-04T12:39:29.374Z,5.14
2023-01-04T12:42:03.862Z,5.05
2023-01-04T12:44:38.750Z,5.08
2023-01-04T12:47:37.357Z,5.04
2023-01-04T12:50:11.930Z,5.09
2023-01-04T12:55:44.126Z,5.09
2023-01-04T13:01:26.026Z,5.11
2023-01-04T13:04:05.714Z,5.18
2023-01-04T13:06:45.267Z,5.15
2023-01-04T13:09:24.080Z,5.06
2023-01-04T13:12:02.715Z,5.04
2023-01-04T13:14:52.016Z,5.00
2023-01-04T13:17:23.844Z,4.98
2023-01-04T13:19:51.943Z,4.94
2023-01-04T13:22:29.720Z,4.91
2023-01-04T13:25:00.424Z,4.90
2023-01-04T13:27:28.551Z,4.91
2023-01-04T13:29:56.557Z,4.78
2023-01-04T13:32:27.367Z,4.77
2023-01-04T13:34:59.870Z,4.78
2023-01-04T13:37:31.272Z,4.72
2023-01-04T13:40:24.990Z,4.69
2023-01-04T13:43:15.470Z,4.69
2023-01-04T13:46:11.801Z,4.61
2023-01-04T13:48:42.582Z,4.62
2023-01-04T13:51:14.226Z,4.62
2023-01-04T13:53:42.347Z,4.56
2023-01-04T13:56:20.689Z,4.57
2023-01-04T13:58:49.247Z,4.55
2023-01-04T14:01:22.684Z,4.57
2023-01-04T14:04:27.006Z,4.55
2023-01-04T14:06:58.708Z,4.52
2023-01-04T14:09:31.115Z,4.54
2023-01-04T14:12:08.607Z,4.52
2023-01-04T14:14:48.607Z,4.47
2023-01-04T14:17:21.965Z,4.48
2023-01-04T14:19:57.284Z,4.46
2023-01-04T14:22:30.410Z,4.48
2023-01-04T14:25:15.299Z,4.39
2023-01-04T14:27:43.537Z,4.35
2023-01-04T14:30:29.041Z,4.38
2023-01-04T14:32:59.518Z,4.36
2023-01-04T14:35:28.651Z,4.41
2023-01-04T14:38:03.694Z,4.36
2023-01-04T14:40:32.111Z,4.33
2023-01-04T14:42:59.798Z,4.41
2023-01-04T14:45:27.524Z,4.41
2023-01-04T14:47:55.039Z,4.35
2023-01-04T14:50:22.741Z,4.37
2023-01-04T14:52:51.674Z,4.36
2023-01-04T14:55:20.102Z,4.34
2023-01-04T14:57:47.908Z,4.36
2023-01-04T15:00:19.525Z,4.38
2023-01-04T15:02:52.120Z,4.41
2023-01-04T15:05:20.632Z,4.39
2023-01-04T15:07:48.868Z,4.34
2023-01-04T15:10:25.886Z,4.42
2023-01-04T15:12:54.564Z,4.38
2023-01-04T15:15:22.611Z,4.39
2023-01-04T15:17:50.457Z,4.43
2023-01-04T15:20:18.232Z,4.41
2023-01-04T15:22:45.878Z,4.42
2023-01-04T15:25:13.852Z,4.35
2023-01-04T15:27:42.817Z,4.33
2023-01-04T15:30:12.814Z,4.27
2023-01-04T15:32:42.539Z,4.33
2023-01-04T15:35:16.946Z,4.32
2023-01-04T15:37:45.117Z,4.37
2023-01-04T15:40:16.700Z,4.35
2023-01-04T15:42:59.776Z,4.33
2023-01-04T15:45:30.727Z,4.33
2023-01-04T15:48:03.264Z,4.33
2023-01-04T15:50:35.008Z,4.31
2023-01-04T15:53:02.893Z,4.29
2023-01-04T15:55:36.305Z,4.35
2023-01-04T15:58:05.856Z,4.31
2023-01-04T16:00:33.454Z,4.23
2023-01-04T16:03:01.335Z,4.26
2023-01-04T16:05:29.034Z,4.22
2023-01-04T16:07:57.783Z,4.22
2023-01-04T16:10:26.552Z,4.27
2023-01-04T16:12:57.171Z,4.25
2023-01-04T16:15:25.127Z,4.23
2023-01-04T16:17:52.706Z,4.24
2023-01-04T16:20:20.807Z,4.28
2023-01-04T16:22:48.471Z,4.28
2023-01-04T16:25:17.158Z,4.28
2023-01-04T16:27:44.831Z,4.26
2023-01-04T16:30:14.082Z,4.25
2023-01-04T16:32:45.523Z,4.25
2023-01-04T16:35:13.027Z,4.26
2023-01-04T16:37:42.967Z,4.29
2023-01-04T16:40:13.303Z,4.35
2023-01-04T16:42:43.121Z,4.37
2023-01-04T16:45:11.439Z,4.36
2023-01-04T16:47:41.575Z,4.39
2023-01-04T16:50:12.069Z,4.42
2023-01-04T16:52:40.579Z,4.39
2023-01-04T16:55:08.778Z,4.37
2023-01-04T16:57:36.505Z,4.30
2023-01-04T17:00:05.383Z,4.30
2023-01-04T17:02:33.197Z,4.29
2023-01-04T17:05:01.092Z,4.29
2023-01-04T17:07:32.791Z,4.28
2023-01-04T17:10:01.383Z,4.25
2023-01-04T17:12:47.169Z,4.29
2023-01-04T17:23:45.546Z,4.18
2023-01-04T17:26:19.914Z,4.20
2023-01-04T17:28:48.404Z,4.23
2023-01-04T17:31:25.319Z,4.24
2023-01-04T17:33:53.577Z,4.28
2023-01-04T17:36:21.999Z,4.30
2023-01-04T17:38:50.322Z,4.30
2023-01-04T17:41:24.397Z,4.32
2023-01-04T17:44:00.222Z,4.28
2023-01-04T17:46:32.038Z,4.33
2023-01-04T17:49:22.172Z,4.32
2023-01-04T17:51:52.935Z,4.37
2023-01-04T17:54:21.344Z,4.33
2023-01-04T17:56:48.970Z,4.28
2023-01-04T17:59:16.541Z,4.33
2023-01-04T18:01:44.233Z,4.34
2023-01-04T18:04:12.019Z,4.36
2023-01-04T18:06:40.248Z,4.28
2023-01-04T18:09:09.291Z,4.31
2023-01-04T18:11:37.760Z,4.31
2023-01-04T18:14:09.771Z,4.25
2023-01-04T18:16:58.022Z,4.25
2023-01-04T18:19:28.608Z,4.26
2023-01-04T18:21:56.775Z,4.28
2023-01-04T18:24:41.710Z,4.22
2023-01-04T18:27:23.260Z,4.27
2023-01-04T18:29:53.014Z,4.21
2023-01-04T18:41:27.483Z,4.06
2023-01-04T18:44:13.294Z,4.04
2023-01-04T18:46:45.675Z,4.02
2023-01-04T18:49:13.439Z,4.09
2023-01-04T18:51:41.016Z,4.04
2023-01-04T18:54:09.246Z,4.03
2023-01-04T18:56:37.299Z,4.04
2023-01-04T18:59:04.827Z,4.04
2023-01-04T19:01:35.013Z,4.06
2023-01-04T19:04:04.804Z,4.07
2023-01-04T19:06:33.121Z,4.02
2023-01-04T19:09:06.304Z,4.05
2023-01-04T19:11:36.015Z,4.06
2023-01-04T19:19:15.019Z,3.89
2023-01-04T19:21:42.663Z,3.84
2023-01-04T19:24:10.653Z,3.75
2023-01-04T19:26:40.056Z,3.74
2023-01-04T19:29:10.533Z,3.73
2023-01-04T19:31:39.095Z,3.72
2023-01-04T19:34:10.132Z,3.66
2023-01-04T19:36:38.829Z,3.65
2023-01-04T19:39:09.380Z,3.68
2023-01-04T19:41:38.321Z,3.60
2023-01-04T19:44:10.896Z,3.52
2023-01-04T19:46:39.790Z,3.56
2023-01-04T19:49:14.467Z,3.56
2023-01-04T19:51:45.525Z,3.55
2023-01-04T19:54:14.059Z,3.53
2023-01-04T19:56:42.246Z,3.48
2023-01-04T19:59:10.089Z,3.52
2023-01-04T20:01:38.071Z,3.47
2023-01-04T20:04:06.035Z,3.50
2023-01-04T20:06:33.838Z,3.51
2023-01-04T20:09:01.623Z,3.48
2023-01-04T20:11:33.572Z,3.35
2023-01-04T20:15:16.474Z,3.37
2023-01-04T20:17:44.235Z,3.35
2023-01-04T20:20:12.007Z,3.27
2023-01-04T20:22:41.089Z,3.26
2023-01-04T20:25:09.534Z,3.21
2023-01-04T20:27:37.214Z,3.20
2023-01-04T20:30:05.498Z,3.21
2023-01-04T20:32:36.719Z,3.23
2023-01-04T20:35:06.196Z,3.16
2023-01-04T20:37:33.806Z,3.18
2023-01-04T20:40:01.490Z,3.09
2023-01-04T20:42:47.960Z,3.08
2023-01-04T20:45:17.762Z,3.06
2023-01-04T20:47:45.351Z,3.05
2023-01-04T20:50:13.587Z,3.07
2023-01-04T20:52:43.614Z,2.99
2023-01-04T20:55:17.037Z,3.05
2023-01-04T20:57:45.108Z,2.95
2023-01-04T21:05:26.042Z,3.03
2023-01-04T21:07:55.470Z,3.06
2023-01-04T21:10:23.211Z,2.96
2023-01-04T21:12:50.830Z,3.01
2023-01-04T21:15:18.388Z,2.90
2023-01-04T21:17:47.852Z,2.91
2023-01-04T21:20:15.969Z,2.91
2023-01-04T21:22:43.550Z,2.89
2023-01-04T21:25:11.148Z,2.96
2023-01-04T21:27:38.816Z,2.95
2023-01-04T21:30:07.279Z,2.92
2023-01-04T21:32:35.927Z,2.89
2023-01-04T21:35:03.814Z,2.90
2023-01-04T21:37:31.545Z,2.81
2023-01-04T21:39:59.155Z,2.72
2023-01-04T21:42:27.197Z,2.72
2023-01-04T21:44:54.796Z,2.70
2023-01-04T21:47:22.326Z,2.74
2023-01-04T21:49:50.926Z,2.74
2023-01-04T21:52:18.447Z,2.76
2023-01-04T21:54:47.050Z,2.83
2023-01-04T21:57:14.649Z,2.91
2023-01-04T21:59:42.240Z,2.91
2023-01-04T22:02:21.201Z,2.88
2023-01-04T22:04:49.025Z,2.78
2023-01-04T22:07:16.628Z,2.76
2023-01-04T22:09:44.300Z,2.81
2023-01-04T22:12:11.911Z,2.87
2023-01-04T22:14:39.670Z,2.86
2023-01-04T22:17:07.339Z,2.86
2023-01-04T22:19:35.303Z,2.95
2023-01-04T22:22:02.857Z,2.94
2023-01-04T22:24:37.197Z,2.93
2023-01-04T22:27:05.937Z,2.95
2023-01-04T22:29:33.668Z,2.99
2023-01-04T22:32:01.325Z,2.92
2023-01-04T22:34:30.311Z,2.92
2023-01-04T22:37:00.292Z,2.86
2023-01-04T22:39:32.426Z,2.87
2023-01-04T22:42:00.924Z,2.89
2023-01-04T22:44:28.485Z,2.84
2023-01-04T22:46:56.191Z,2.81
2023-01-04T22:49:23.952Z,2.85
2023-01-04T22:51:54.214Z,2.86
2023-01-04T22:54:22.381Z,2.84
2023-01-04T22:56:50.732Z,2.86
2023-01-04T22:59:18.441Z,2.79
2023-01-04T23:01:48.987Z,2.70
2023-01-04T23:04:19.311Z,2.70
2023-01-04T23:06:47.144Z,2.64
2023-01-04T23:14:46.004Z,2.79
2023-01-04T23:17:13.677Z,2.87
2023-01-04T23:19:42.405Z,2.85
2023-01-04T23:22:10.019Z,2.92
2023-01-04T23:24:39.616Z,2.92
2023-01-04T23:27:07.329Z,2.93
2023-01-04T23:29:35.001Z,2.80
2023-01-04T23:32:02.587Z,2.80
2023-01-04T23:34:30.885Z,2.84
2023-01-04T23:36:58.435Z,2.91
2023-01-04T23:39:26.815Z,2.93
2023-01-04T23:41:54.418Z,2.84
2023-01-04T23:44:25.347Z,2.77
2023-01-04T23:46:57.246Z,2.74
2023-01-04T23:49:27.029Z,2.87
2023-01-04T23:51:54.543Z,2.95
2023-01-04T23:54:22.701Z,2.98
2023-01-04T23:56:54.493Z,3.12
2023-01-04T23:59:23.583Z,3.15
